Cotton Gin, Texas
Current Conditions -  °F | °C
As of 8:35 AM on Saturday 25 Oct 2014 (Local Time) from KLXY Reporting Station
Clear Clear  
Wind Chill: 60°   Ceiling: Unl
Heat Index: 60°   Visibility: 10mi
Dew Point: 57°   Wind: 3mph
Humidity: 91%   Direction: 170°S
Pressure: 30.16"   Gusts: NA
Location:  31.6463°N, 96.2786°W
Report Text: KLXY 251335Z AUTO 17003KT 10SM CLR 15/14 A3016 RMK AO2 T01540140
Loading
Personal Weather Stations






























Interactive Weather Map New forecast layout! Learn more

10-Day Weather Forecast

Advertisements
Track Severe Weather on mobile